Time;durP1;ratioP1;P1;durP2;ratioP2;P2;SDS_P1;SDS_P2;PMS_P1;PMS_P2;Temp;Humidity;BMP_temperature;BMP_pressure;BME280_temperature;BME280_humidity;BME280_pressure;Samples;Min_cycle;Max_cycle;Signal;HPM_P1;HPM_P2
2023/07/16 00:02:32;;;;;;;;;13.00;12.50;;;;;29.54;47.66;100955.81;146616;629;47011;-76
2023/07/16 00:05:32;;;;;;;;;11.50;10.00;;;;;29.51;48.29;100945.19;146608;593;47012;-72
2023/07/16 00:08:27;;;;;;;;;11.75;9.50;;;;;29.45;48.19;100943.53;146612;569;46020;-72
2023/07/16 00:11:25;;;;;;;;;12.75;12.25;;;;;29.45;48.52;100944.41;146616;602;47012;-71
2023/07/16 00:14:20;;;;;;;;;13.50;12.25;;;;;29.46;47.78;100940.81;146613;651;47020;-72
2023/07/16 00:17:15;;;;;;;;;12.50;11.50;;;;;29.41;48.55;100932.06;146611;646;46033;-70
2023/07/16 00:20:11;;;;;;;;;13.00;11.50;;;;;29.33;48.47;100934.00;146609;576;47010;-72
2023/07/16 00:23:04;;;;;;;;;14.50;12.50;;;;;29.25;48.10;100927.97;146608;569;47012;-71
2023/07/16 00:26:08;;;;;;;;;12.00;10.50;;;;;29.19;48.79;100933.44;146612;579;47020;-72
2023/07/16 00:29:00;;;;;;;;;13.75;11.50;;;;;29.16;48.72;100922.81;146604;593;46917;-73
2023/07/16 00:31:52;;;;;;;;;12.00;11.75;;;;;29.15;48.41;100926.41;146612;594;46010;-73
2023/07/16 00:34:44;;;;;;;;;14.00;12.00;;;;;29.11;48.59;100922.94;146610;578;46917;-74
2023/07/16 00:37:40;;;;;;;;;13.50;11.75;;;;;29.06;47.90;100924.81;146614;635;46010;-77
2023/07/16 00:40:36;;;;;;;;;11.00;10.50;;;;;29.02;48.03;100923.16;146608;580;47016;-78
2023/07/16 00:43:34;;;;;;;;;13.25;12.00;;;;;28.98;48.37;100930.31;146611;574;46020;-77
2023/07/16 00:46:27;;;;;;;;;14.00;12.00;;;;;28.95;48.71;100927.72;146608;624;47016;-78
2023/07/16 00:49:31;;;;;;;;;12.00;9.75;;;;;28.94;48.46;100925.97;146606;634;47010;-76
2023/07/16 00:52:28;;;;;;;;;11.75;11.75;;;;;28.96;48.24;100918.78;146612;618;47917;-78
2023/07/16 00:55:23;;;;;;;;;10.75;9.25;;;;;28.94;48.85;100922.38;146612;597;46034;-76
2023/07/16 00:58:25;;;;;;;;;14.50;12.75;;;;;28.88;48.46;100933.19;146617;620;46016;-72
2023/07/16 01:01:19;;;;;;;;;12.75;12.25;;;;;28.84;49.13;100929.72;146612;694;46020;-74
2023/07/16 01:04:13;;;;;;;;;14.75;13.50;;;;;28.83;49.15;100932.44;146610;579;46012;-74
2023/07/16 01:07:13;;;;;;;;;12.25;11.25;;;;;28.88;48.62;100919.84;146612;582;46010;-69
2023/07/16 01:10:18;;;;;;;;;13.25;12.75;;;;;28.90;48.12;100929.59;146612;577;46013;-72
2023/07/16 01:13:13;;;;;;;;;15.25;12.75;;;;;28.90;48.82;100928.72;146616;652;46020;-73
2023/07/16 01:16:05;;;;;;;;;13.50;12.50;;;;;28.84;48.85;100927.03;146606;693;46016;-73
2023/07/16 01:18:59;;;;;;;;;14.50;14.50;;;;;28.75;49.27;100929.91;146606;581;47010;-75
2023/07/16 01:22:47;;;;;;;;;16.00;14.00;;;;;28.63;48.37;100927.47;146609;563;46016;-73
2023/07/16 01:26:35;;;;;;;;;14.50;13.50;;;;;27.70;48.05;100789.69;146613;641;47011;-72
2023/07/16 01:29:53;;;;;;;;;14.00;13.25;;;;;27.48;48.82;100749.25;146609;595;46016;-71
2023/07/16 01:32:46;;;;;;;;;12.00;11.25;;;;;28.38;49.06;100914.63;146611;586;47021;-73
2023/07/16 01:35:42;;;;;;;;;14.25;12.75;;;;;28.29;49.25;100914.81;146607;593;46917;-70
2023/07/16 01:38:36;;;;;;;;;11.25;11.25;;;;;28.31;49.81;100915.63;146611;637;47010;-75
2023/07/16 01:41:31;;;;;;;;;12.00;11.75;;;;;28.38;49.21;100919.06;146610;577;46016;-78
2023/07/16 01:44:26;;;;;;;;;13.25;12.00;;;;;28.41;49.22;100916.34;146614;621;46020;-75
2023/07/16 01:47:49;;;;;;;;;11.75;10.00;;;;;27.48;48.59;100751.91;146608;570;47026;-78
2023/07/16 01:50:42;;;;;;;;;15.25;12.50;;;;;28.54;49.02;100920.56;146609;631;46010;-77
2023/07/16 01:53:37;;;;;;;;;11.75;11.75;;;;;28.53;48.40;100922.34;146611;611;46016;-71
2023/07/16 01:56:35;;;;;;;;;12.50;11.25;;;;;28.54;48.54;100916.09;146614;563;46024;-73
2023/07/16 01:59:30;;;;;;;;;12.25;11.75;;;;;28.60;48.94;100920.44;146612;676;46029;-72
2023/07/16 02:02:22;;;;;;;;;12.75;12.75;;;;;28.59;49.06;100923.12;146610;649;47020;-73
2023/07/16 02:05:26;;;;;;;;;13.50;13.50;;;;;28.48;49.25;100918.03;146606;574;47012;-72
2023/07/16 02:08:18;;;;;;;;;12.25;11.75;;;;;28.43;49.61;100918.09;146610;581;46010;-73
2023/07/16 02:11:10;;;;;;;;;11.75;11.00;;;;;28.43;50.32;100923.44;146611;633;47012;-73
2023/07/16 02:14:05;;;;;;;;;13.00;11.25;;;;;28.37;49.64;100928.84;146612;635;47010;-71
2023/07/16 02:17:00;;;;;;;;;13.00;12.25;;;;;28.34;50.49;100928.91;146604;637;49013;-72
2023/07/16 02:19:59;;;;;;;;;11.50;11.50;;;;;28.33;50.53;100935.16;146610;662;46020;-72
2023/07/16 02:22:53;;;;;;;;;13.75;11.75;;;;;28.30;50.51;100929.88;146609;593;47016;-71
2023/07/16 02:25:50;;;;;;;;;11.50;10.25;;;;;28.30;50.28;100921.87;146614;582;46021;-80
2023/07/16 02:28:45;;;;;;;;;13.50;12.25;;;;;28.37;49.57;100933.31;146609;595;46014;-80
2023/07/16 02:31:50;;;;;;;;;;;;;;;;;;;;;
2023/07/16 02:34:45;;;;;;;;;15.75;12.50;;;;;28.19;50.31;100940.72;146607;591;47014;-79
2023/07/16 02:37:41;;;;;;;;;13.75;12.75;;;;;28.17;49.50;100933.69;146609;627;47020;-77
2023/07/16 02:40:51;;;;;;;;;12.25;12.25;;;;;28.18;50.27;100938.09;146610;667;46016;-78
2023/07/16 02:43:46;;;;;;;;;13.50;12.50;;;;;28.09;50.75;100937.34;146605;651;46044;-80
2023/07/16 02:46:55;;;;;;;;;14.50;12.50;;;;;28.02;51.04;100933.03;146612;569;46013;-78
2023/07/16 02:49:55;;;;;;;;;11.75;10.50;;;;;28.01;50.42;100941.97;146608;597;47010;-78
2023/07/16 02:52:52;;;;;;;;;11.50;11.50;;;;;28.02;51.08;100945.50;146610;598;46017;-78
2023/07/16 02:56:02;;;;;;;;;12.25;11.25;;;;;27.91;51.22;100940.31;146616;563;46020;-76
2023/07/16 02:59:08;;;;;;;;;13.75;13.75;;;;;27.83;50.75;100942.25;146611;667;46016;-75
2023/07/16 03:02:00;;;;;;;;;16.25;14.25;;;;;27.84;52.08;100944.00;146608;588;47012;-79
2023/07/16 03:04:55;;;;;;;;;12.25;10.25;;;;;27.82;51.91;100949.37;146606;597;46016;-76
2023/07/16 03:07:53;;;;;;;;;15.00;12.25;;;;;27.77;51.91;100953.91;146611;612;46020;-76
2023/07/16 03:10:48;;;;;;;;;4.25;4.25;;;;;27.69;52.28;100955.75;146611;586;46016;-77
2023/07/16 03:13:56;;;;;;;;;;;;;;;;;;;;;
2023/07/16 03:16:51;;;;;;;;;16.00;13.50;;;;;27.64;53.06;100953.19;146608;663;47013;-77
2023/07/16 03:19:52;;;;;;;;;11.50;10.00;;;;;27.60;53.40;100954.12;146608;579;46010;-79
2023/07/16 03:22:56;;;;;;;;;10.00;9.50;;;;;27.58;53.19;100963.06;146607;564;46013;-86
2023/07/16 03:26:22;;;;;;;;;12.75;12.00;;;;;26.58;52.09;100802.09;146620;584;46010;-78
2023/07/16 03:29:23;;;;;;;;;13.25;12.25;;;;;27.50;53.84;100962.28;146611;629;46017;-79
2023/07/16 03:32:24;;;;;;;;;12.25;10.75;;;;;27.53;52.91;100964.88;146613;684;46020;-79
2023/07/16 03:35:24;;;;;;;;;14.25;12.00;;;;;27.57;53.95;100969.25;146611;585;46014;-74
2023/07/16 03:38:20;;;;;;;;;13.00;13.00;;;;;27.55;54.33;100974.62;146613;567;46021;-74
2023/07/16 03:41:14;;;;;;;;;16.00;13.00;;;;;27.56;54.35;100972.84;146609;585;46016;-75
2023/07/16 03:44:09;;;;;;;;;12.50;12.00;;;;;27.59;54.75;100975.47;146611;621;46010;-75
2023/07/16 03:47:02;;;;;;;;;15.50;14.25;;;;;27.62;54.89;100978.94;146634;613;45917;-79
2023/07/16 03:50:03;;;;;;;;;15.25;14.50;;;;;27.68;54.39;100982.44;146628;661;45020;-80
2023/07/16 03:52:57;;;;;;;;;15.50;13.25;;;;;27.73;53.48;100991.25;146636;587;45016;-77
2023/07/16 03:55:49;;;;;;;;;15.75;14.25;;;;;27.73;52.51;100978.81;146635;615;46028;-75
2023/07/16 03:59:02;;;;;;;;;13.50;12.00;;;;;27.70;52.22;100993.97;146631;598;45917;-78
2023/07/16 04:02:03;;;;;;;;;14.00;13.00;;;;;27.71;53.50;100998.38;146635;593;45021;-79
2023/07/16 04:05:11;;;;;;;;;13.25;10.50;;;;;27.76;52.48;100996.53;146631;740;46012;-80
2023/07/16 04:08:08;;;;;;;;;10.00;10.00;;;;;27.77;51.96;100999.19;146632;599;46011;-81
2023/07/16 04:11:04;;;;;;;;;14.25;13.25;;;;;27.81;52.21;101008.88;146635;566;45016;-81
2023/07/16 04:13:57;;;;;;;;;13.25;13.00;;;;;27.85;52.02;101007.06;146634;579;46010;-83
2023/07/16 04:17:01;;;;;;;;;15.00;14.75;;;;;27.92;52.35;101005.19;146637;653;45016;-83
2023/07/16 04:20:09;;;;;;;;;;;;;;;;;;;;;
2023/07/16 04:23:09;;;;;;;;;12.25;11.50;;;;;28.21;51.15;101002.91;146631;587;45013;-81
2023/07/16 04:26:06;;;;;;;;;10.50;10.50;;;;;28.35;51.35;101007.13;146635;604;45020;-79
2023/07/16 04:29:03;;;;;;;;;11.75;11.25;;;;;28.50;50.96;101005.09;146633;627;45017;-87
2023/07/16 04:32:08;;;;;;;;;14.00;13.25;;;;;28.70;51.18;101011.84;146637;621;45010;-83
2023/07/16 04:35:03;;;;;;;;;13.75;12.50;;;;;28.88;51.46;101018.59;146630;577;45016;-86
2023/07/16 04:37:58;;;;;;;;;11.00;10.25;;;;;29.05;51.03;101023.66;146635;648;45020;-88
2023/07/16 04:41:02;;;;;;;;;12.50;12.00;;;;;29.22;50.05;101029.50;146631;636;46014;-88
2023/07/16 04:44:10;;;;;;;;;13.00;12.75;;;;;28.61;49.74;100873.31;146635;614;46010;-88
2023/07/16 04:47:05;;;;;;;;;17.00;14.25;;;;;29.64;49.07;101025.06;146631;699;45017;-89
2023/07/16 04:50:02;;;;;;;;;12.75;11.50;;;;;29.79;48.87;101025.62;146634;650;45010;-85
2023/07/16 04:53:00;;;;;;;;;17.00;12.50;;;;;29.90;48.86;101026.22;146632;679;45915;-86
2023/07/16 04:56:10;;;;;;;;;14.00;11.75;;;;;29.17;49.13;100871.19;146637;612;45020;-86
2023/07/16 04:59:24;;;;;;;;;12.00;12.00;;;;;30.23;49.01;101021.88;146634;578;45016;-82
2023/07/16 05:02:21;;;;;;;;;14.00;12.75;;;;;30.43;49.82;101025.84;146633;569;46025;-81
2023/07/16 05:05:13;;;;;;;;;13.75;13.00;;;;;30.61;48.43;101022.69;146634;609;46012;-79
2023/07/16 05:08:08;;;;;;;;;14.75;13.50;;;;;30.75;47.72;101025.00;146637;620;45010;-78
2023/07/16 05:11:13;;;;;;;;;;;;;;;;;;;;;
2023/07/16 05:14:11;;;;;;;;;14.75;14.75;;;;;31.02;47.29;101029.56;146635;645;46012;-81
2023/07/16 05:17:05;;;;;;;;;13.25;13.00;;;;;31.17;47.08;101035.41;146633;659;46014;-77
2023/07/16 05:20:24;;;;;;;;;14.50;13.50;;;;;31.34;45.62;101037.63;146628;565;46020;-76
2023/07/16 05:23:24;;;;;;;;;13.00;11.75;;;;;31.48;45.67;101030.06;146632;572;45017;-77
2023/07/16 05:26:21;;;;;;;;;12.00;12.00;;;;;31.61;45.74;101033.22;146638;566;45010;-77
2023/07/16 05:29:14;;;;;;;;;12.00;10.75;;;;;31.72;45.38;101039.16;146631;611;46012;-79
2023/07/16 05:32:15;;;;;;;;;15.25;13.25;;;;;31.84;44.95;101043.22;146635;571;46010;-77
2023/07/16 05:35:11;;;;;;;;;13.75;13.25;;;;;31.95;44.37;101047.34;146630;618;46915;-82
2023/07/16 05:38:09;;;;;;;;;14.00;13.00;;;;;32.07;44.39;101048.75;146637;578;45029;-77
2023/07/16 05:41:09;;;;;;;;;16.75;13.25;;;;;32.19;44.35;101045.66;146632;672;45016;-84
2023/07/16 05:44:06;;;;;;;;;16.25;12.50;;;;;32.27;44.03;101050.75;146635;569;45021;-79
2023/07/16 05:47:12;;;;;;;;;13.50;13.50;;;;;32.30;43.88;101049.78;146627;628;46012;-79
2023/07/16 05:50:16;;;;;;;;;13.75;13.00;;;;;32.31;43.77;101046.19;146628;595;46010;-76
2023/07/16 05:53:10;;;;;;;;;14.25;13.25;;;;;32.36;43.68;101049.59;146632;640;45915;-77
2023/07/16 05:56:07;;;;;;;;;13.25;10.75;;;;;32.37;43.75;101052.22;146633;623;46010;-76
2023/07/16 05:59:06;;;;;;;;;12.25;11.25;;;;;32.38;43.97;101047.72;146629;708;46016;-71
2023/07/16 06:02:02;;;;;;;;;13.25;12.25;;;;;32.39;44.28;101050.34;146634;631;46012;-75
2023/07/16 06:05:09;;;;;;;;;12.00;10.75;;;;;32.41;44.64;101047.63;146635;622;45016;-75
2023/07/16 06:08:10;;;;;;;;;69.75;50.00;;;;;32.40;44.54;101048.53;146637;575;45021;-74
2023/07/16 06:11:10;;;;;;;;;11.75;11.75;;;;;32.39;45.12;101046.78;146631;674;45014;-77
2023/07/16 06:14:17;;;;;;;;;;;;;;;;;;;;;
2023/07/16 06:17:15;;;;;;;;;18.00;14.75;;;;;32.35;45.41;101051.38;146632;633;45018;-73
2023/07/16 06:20:23;;;;;;;;;16.00;13.75;;;;;31.45;44.90;100897.03;146628;613;45020;-73
2023/07/16 06:23:18;;;;;;;;;11.75;9.75;;;;;32.41;45.14;101042.25;146632;727;45915;-75
2023/07/16 06:26:20;;;;;;;;;13.25;12.00;;;;;32.49;46.47;101040.19;146638;607;45020;-73
2023/07/16 06:29:16;;;;;;;;;13.50;10.50;;;;;32.56;45.69;101044.44;146634;677;45017;-72
2023/07/16 06:32:13;;;;;;;;;16.00;14.25;;;;;32.57;45.84;101046.19;146638;598;45020;-73
2023/07/16 06:35:12;;;;;;;;;17.50;15.75;;;;;32.59;45.68;101044.34;146633;631;46010;-73
2023/07/16 06:38:07;;;;;;;;;32.50;25.25;;;;;32.63;46.14;101047.78;146636;569;45020;-72
2023/07/16 06:41:11;;;;;;;;;23.75;19.75;;;;;32.65;46.73;101043.25;146631;582;46014;-74
2023/07/16 06:44:03;;;;;;;;;13.25;13.00;;;;;32.65;47.24;101044.13;146634;578;45020;-74
2023/07/16 06:46:58;;;;;;;;;14.50;13.50;;;;;32.69;47.31;101049.38;146626;619;46914;-74
2023/07/16 06:50:00;;;;;;;;;13.50;10.50;;;;;32.74;46.99;101042.03;146626;625;46010;-73
2023/07/16 06:52:56;;;;;;;;;12.50;10.75;;;;;32.82;47.08;101045.31;146621;681;46021;-73
2023/07/16 06:55:58;;;;;;;;;13.50;13.50;;;;;32.86;46.83;101042.44;146631;609;46010;-72
2023/07/16 06:59:02;;;;;;;;;15.25;11.50;;;;;32.91;47.11;101049.50;146634;564;45918;-73
2023/07/16 07:02:08;;;;;;;;;10.00;10.00;;;;;32.93;48.01;101045.81;146634;598;46010;-74
2023/07/16 07:05:04;;;;;;;;;13.00;12.25;;;;;33.05;47.39;101047.19;146635;609;45016;-73
2023/07/16 07:07:59;;;;;;;;;13.25;12.75;;;;;33.17;46.54;101046.72;146634;616;46012;-73
2023/07/16 07:10:54;;;;;;;;;12.50;11.75;;;;;33.27;47.83;101048.16;146633;610;45033;-73
2023/07/16 07:14:06;;;;;;;;;13.00;12.75;;;;;33.27;47.07;101048.16;146634;626;46020;-74
2023/07/16 07:17:09;;;;;;;;;12.50;12.50;;;;;33.32;46.42;101047.97;146633;721;45012;-73
2023/07/16 07:20:04;;;;;;;;;12.25;10.00;;;;;33.41;47.68;101042.22;146627;595;46020;-73
2023/07/16 07:23:02;;;;;;;;;13.25;10.25;;;;;33.51;46.46;101043.66;146629;609;45016;-72
2023/07/16 07:26:00;;;;;;;;;13.00;12.75;;;;;33.59;47.13;101038.00;146635;638;45010;-75
2023/07/16 07:29:14;;;;;;;;;13.50;12.50;;;;;33.66;47.15;101044.00;146630;609;46014;-73
2023/07/16 07:32:12;;;;;;;;;13.00;12.25;;;;;33.68;45.84;101039.44;146634;614;46010;-75
2023/07/16 07:35:06;;;;;;;;;12.25;12.00;;;;;33.69;46.45;101046.56;146633;577;45016;-75
2023/07/16 07:38:01;;;;;;;;;14.00;13.25;;;;;33.73;45.57;101045.50;146636;630;45020;-74
2023/07/16 07:40:56;;;;;;;;;14.25;12.75;;;;;33.78;45.74;101049.75;146624;676;46016;-73
2023/07/16 07:43:48;;;;;;;;;14.50;14.00;;;;;33.78;46.08;101044.38;146636;625;45021;-72
2023/07/16 07:46:46;;;;;;;;;11.75;11.50;;;;;33.90;45.13;101047.53;146610;662;47012;-67
2023/07/16 07:49:50;;;;;;;;;;;;;;;;;;;;;
2023/07/16 07:52:51;;;;;;;;;12.25;12.25;;;;;34.09;45.04;101056.63;146611;580;46018;-73
2023/07/16 07:55:43;;;;;;;;;10.75;10.25;;;;;34.19;44.63;101060.66;146612;584;46020;-73
2023/07/16 07:58:45;;;;;;;;;12.50;12.50;;;;;34.30;43.76;101057.53;146610;582;46012;-74
2023/07/16 08:01:49;;;;;;;;;10.75;10.75;;;;;34.37;42.99;101071.59;146614;577;46010;-74
2023/07/16 08:04:47;;;;;;;;;14.00;12.25;;;;;34.39;42.56;101064.31;146610;662;46918;-73
2023/07/16 08:07:50;;;;;;;;;8.25;8.00;;;;;34.43;41.37;101066.84;146612;674;46020;-72
2023/07/16 08:10:46;;;;;;;;;13.50;12.50;;;;;34.38;42.03;101074.22;146613;569;47014;-72
2023/07/16 08:13:46;;;;;;;;;11.25;10.50;;;;;34.39;41.82;101062.50;146609;592;47010;-70
2023/07/16 08:16:40;;;;;;;;;13.00;13.00;;;;;34.43;42.19;101064.13;146607;596;46016;-73
2023/07/16 08:19:48;;;;;;;;;12.00;11.50;;;;;34.49;42.43;101069.25;146606;679;46034;-74
2023/07/16 08:22:50;;;;;;;;;13.00;10.25;;;;;34.52;42.58;101061.97;146611;686;46012;-73
2023/07/16 08:25:46;;;;;;;;;13.25;9.75;;;;;34.54;41.91;101061.00;146614;569;46010;-75
2023/07/16 08:28:41;;;;;;;;;10.50;9.50;;;;;34.49;41.76;101057.63;146618;660;46012;-74
2023/07/16 08:31:33;;;;;;;;;15.25;12.25;;;;;34.42;42.15;101062.38;146617;602;48010;-72
2023/07/16 08:34:36;;;;;;;;;11.00;10.25;;;;;34.38;42.30;101063.44;146610;698;46015;-74
2023/07/16 08:37:44;;;;;;;;;11.50;11.00;;;;;32.80;40.82;100786.69;146613;602;46020;-73
2023/07/16 08:40:41;;;;;;;;;10.75;9.50;;;;;34.36;40.95;101056.38;146609;660;46016;-74
2023/07/16 08:43:34;;;;;;;;;10.75;9.75;;;;;34.32;40.33;101058.31;146618;641;46010;-73
2023/07/16 08:46:39;;;;;;;;;9.75;8.75;;;;;34.28;40.90;101054.03;146619;581;46035;-73
2023/07/16 08:49:38;;;;;;;;;9.25;8.00;;;;;34.20;40.25;101053.47;146617;665;46012;-72
2023/07/16 08:52:33;;;;;;;;;10.50;10.50;;;;;34.20;41.01;101062.41;146615;641;46016;-73
2023/07/16 08:55:26;;;;;;;;;12.50;11.00;;;;;34.30;41.32;101059.31;146615;564;46020;-73
2023/07/16 08:58:27;;;;;;;;;12.50;11.25;;;;;34.38;41.83;101058.06;146612;598;47012;-72
2023/07/16 09:01:29;;;;;;;;;11.50;10.50;;;;;34.49;41.72;101052.22;146615;571;46020;-73
2023/07/16 09:04:29;;;;;;;;;10.25;9.25;;;;;34.60;40.69;101051.78;146611;643;46013;-75
2023/07/16 09:07:27;;;;;;;;;10.50;10.00;;;;;34.63;41.31;101052.53;146619;594;46020;-71
2023/07/16 09:10:23;;;;;;;;;12.75;10.25;;;;;34.61;40.96;101042.75;146611;582;47017;-73
2023/07/16 09:13:26;;;;;;;;;;;;;;;;;;;;;
2023/07/16 09:16:28;;;;;;;;;10.25;8.00;;;;;34.61;41.05;101050.84;146615;589;46012;-72
2023/07/16 09:19:32;;;;;;;;;;;;;;;;;;;;;
2023/07/16 09:22:24;;;;;;;;;8.50;8.50;;;;;34.49;40.92;101046.84;146618;563;46032;-73
2023/07/16 09:25:22;;;;;;;;;10.50;10.50;;;;;34.45;41.04;101046.06;146621;572;47010;-74
2023/07/16 09:28:17;;;;;;;;;10.00;9.75;;;;;34.42;40.83;101050.72;146612;687;46918;-72
2023/07/16 09:31:12;;;;;;;;;10.75;10.25;;;;;34.40;41.62;101048.13;146618;702;46020;-73
2023/07/16 09:34:10;;;;;;;;;11.00;9.00;;;;;34.44;40.59;101038.94;146608;589;47017;-73
2023/07/16 09:37:05;;;;;;;;;10.75;7.50;;;;;34.53;40.04;101050.28;146617;582;46020;-72
2023/07/16 09:40:17;;;;;;;;;12.50;12.50;;;;;33.00;41.14;100785.94;146613;651;46016;-72
2023/07/16 09:43:21;;;;;;;;;;;;;;;;;;;;;
2023/07/16 09:46:18;;;;;;;;;9.00;8.00;;;;;34.38;41.30;101046.44;146613;599;46016;-73
2023/07/16 09:49:16;;;;;;;;;8.00;7.00;;;;;34.45;41.38;101045.22;146618;685;46018;-72
2023/07/16 09:52:14;;;;;;;;;10.75;9.00;;;;;34.49;41.56;101042.34;146615;677;46016;-73
2023/07/16 09:55:11;;;;;;;;;9.50;8.75;;;;;34.52;41.21;101040.44;146620;681;46020;-72
2023/07/16 09:58:07;;;;;;;;;9.50;8.00;;;;;34.51;42.82;101041.38;146615;655;46918;-73
2023/07/16 10:01:12;;;;;;;;;10.25;10.25;;;;;34.48;42.85;101035.19;146615;574;47020;-74
2023/07/16 10:04:24;;;;;;;;;9.75;9.25;;;;;34.42;43.42;101042.66;146609;630;46017;-73
2023/07/16 10:07:27;;;;;;;;;11.50;10.50;;;;;34.38;43.40;101041.91;146616;636;48020;-71
2023/07/16 10:10:32;;;;;;;;;7.50;5.75;;;;;34.38;44.59;101043.72;146609;634;46017;-74
2023/07/16 10:13:30;;;;;;;;;11.00;10.50;;;;;34.33;45.96;101035.88;146618;669;47020;-73
2023/07/16 10:16:29;;;;;;;;;11.00;8.50;;;;;34.32;43.67;101044.88;146602;563;46016;-72
2023/07/16 10:19:27;;;;;;;;;8.50;7.75;;;;;34.38;43.01;101035.66;146612;736;46020;-74
2023/07/16 10:22:38;;;;;;;;;6.75;6.75;;;;;34.46;43.54;101031.69;146613;669;47014;-74
2023/07/16 10:25:31;;;;;;;;;1.50;1.50;;;;;34.54;43.24;101036.75;146621;571;46030;-74
2023/07/16 10:28:24;;;;;;;;;6.00;5.50;;;;;34.58;41.67;101026.72;146617;695;46016;-72
2023/07/16 10:31:46;;;;;;;;;6.25;5.25;;;;;33.04;41.93;100769.59;146621;620;47010;-73
2023/07/16 10:34:45;;;;;;;;;6.33;5.00;;;;;34.64;40.78;101032.75;146612;678;46017;-72
2023/07/16 10:37:39;;;;;;;;;9.25;7.25;;;;;34.66;42.38;101033.53;146618;728;46010;-72
2023/07/16 10:40:32;;;;;;;;;4.25;4.25;;;;;34.65;42.37;101039.88;146614;574;46917;-73
2023/07/16 10:43:27;;;;;;;;;6.50;6.50;;;;;34.62;41.72;101036.44;146619;587;46020;-77
2023/07/16 10:46:25;;;;;;;;;7.50;6.25;;;;;34.64;41.03;101038.13;146614;571;47012;-79
2023/07/16 10:49:33;;;;;;;;;5.00;4.33;;;;;34.66;38.10;101027.28;146613;567;46020;-77
2023/07/16 10:52:30;;;;;;;;;8.00;5.25;;;;;34.77;39.37;101027.69;146615;598;46016;-77
2023/07/16 10:55:23;;;;;;;;;6.00;5.00;;;;;34.87;39.78;101020.94;146617;583;46010;-78
2023/07/16 10:58:19;;;;;;;;;4.25;3.75;;;;;34.94;40.08;101029.59;146617;706;47012;-77
2023/07/16 11:01:13;;;;;;;;;7.25;6.00;;;;;34.97;38.13;101024.06;146619;570;47013;-75
2023/07/16 11:04:14;;;;;;;;;6.50;6.25;;;;;35.00;39.99;101013.16;146616;709;46016;-78
2023/07/16 11:07:14;;;;;;;;;3.00;3.00;;;;;35.04;38.90;101013.91;146616;674;47020;-77
2023/07/16 11:10:09;;;;;;;;;4.25;4.25;;;;;35.05;39.68;101011.16;146618;591;46017;-76
2023/07/16 11:13:04;;;;;;;;;3.67;3.00;;;;;35.02;38.81;101008.59;146619;566;46020;-79
2023/07/16 11:15:59;;;;;;;;;5.67;5.00;;;;;35.02;38.04;101010.37;146623;626;46012;-78
2023/07/16 11:18:58;;;;;;;;;3.33;3.33;;;;;34.91;39.07;101000.97;146615;565;47020;-82
2023/07/16 11:21:57;;;;;;;;;5.00;5.00;;;;;34.85;39.57;101012.03;146619;637;46016;-76
2023/07/16 11:24:52;;;;;;;;;6.25;5.50;;;;;34.81;39.27;101010.44;146620;626;46021;-77
2023/07/16 11:28:08;;;;;;;;;5.00;4.67;;;;;34.78;39.90;100997.09;146620;650;46016;-77
2023/07/16 11:31:00;;;;;;;;;5.00;4.00;;;;;34.77;39.31;100991.75;146621;656;46021;-77
2023/07/16 11:34:13;;;;;;;;;6.50;5.00;;;;;34.81;38.94;100979.94;146616;594;47012;-77
2023/07/16 11:37:32;;;;;;;;;5.75;5.25;;;;;33.30;36.37;100725.53;146619;600;46010;-81
2023/07/16 11:40:34;;;;;;;;;7.25;6.00;;;;;34.78;37.95;100980.94;146611;599;46016;-77
2023/07/16 11:43:31;;;;;;;;;6.00;4.25;;;;;34.77;38.88;100981.91;146622;563;46020;-73
2023/07/16 11:46:34;;;;;;;;;5.00;5.00;;;;;34.79;38.81;100984.50;146618;567;46032;-79
2023/07/16 11:49:30;;;;;;;;;6.00;6.00;;;;;34.89;37.64;100986.72;146616;596;46020;-76
2023/07/16 11:52:35;;;;;;;;;6.50;6.50;;;;;34.88;36.76;100982.25;146616;581;46012;-72
2023/07/16 11:55:29;;;;;;;;;5.00;4.67;;;;;34.82;37.15;100979.84;146620;674;46010;-71
2023/07/16 11:58:21;;;;;;;;;5.67;5.67;;;;;34.87;37.34;100976.97;146615;596;46025;-72
2023/07/16 12:01:18;;;;;;;;;6.33;6.33;;;;;34.96;36.52;100976.53;146623;616;46021;-74
2023/07/16 12:04:13;;;;;;;;;8.75;5.75;;;;;35.06;36.76;100983.25;146615;665;48024;-71
2023/07/16 12:07:37;;;;;;;;;5.33;5.33;;;;;33.55;38.06;100698.47;146622;649;46010;-72
2023/07/16 12:10:31;;;;;;;;;6.33;6.33;;;;;35.32;35.44;100981.16;146706;565;46012;-72
2023/07/16 12:13:25;;;;;;;;;6.50;6.00;;;;;35.46;35.74;100985.91;146623;594;46012;-72
2023/07/16 12:16:31;;;;;;;;;8.00;7.75;;;;;35.57;37.15;100973.63;146628;588;47014;-71
2023/07/16 12:19:29;;;;;;;;;6.00;5.00;;;;;35.68;35.79;100988.44;146622;618;47012;-72
2023/07/16 12:22:26;;;;;;;;;7.00;6.00;;;;;35.73;36.10;100987.25;146628;638;46021;-71
2023/07/16 12:25:25;;;;;;;;;6.00;6.00;;;;;35.68;34.13;100986.63;146622;652;47016;-70
2023/07/16 12:28:12;;;;;;;;;7.00;6.00;;;;;35.52;34.89;100977.50;146705;567;45023;-72
2023/07/16 12:31:07;;;;;;;;;4.00;3.00;;;;;35.48;36.08;100981.28;146620;644;45016;-71
2023/07/16 12:34:11;;;;;;;;;6.50;5.75;;;;;35.48;36.70;100978.59;146620;585;46043;-71
2023/07/16 12:37:22;;;;;;;;;5.00;5.00;;;;;34.70;35.59;100832.25;146616;693;46014;-72
2023/07/16 12:40:17;;;;;;;;;5.33;4.33;;;;;35.54;34.12;100973.78;146622;576;46010;-72
2023/07/16 12:43:16;;;;;;;;;6.25;5.75;;;;;35.45;34.69;100970.62;146617;595;46017;-71
2023/07/16 12:46:21;;;;;;;;;6.75;6.75;;;;;35.47;34.98;100971.44;146621;721;47010;-71
2023/07/16 12:49:25;;;;;;;;;6.00;6.00;;;;;35.50;34.54;100966.78;146617;589;46017;-71
2023/07/16 12:52:20;;;;;;;;;8.67;6.67;;;;;35.51;33.43;100973.03;146623;673;46010;-72
2023/07/16 12:55:16;;;;;;;;;6.25;5.00;;;;;35.54;34.11;100971.09;146617;651;46915;-71
2023/07/16 12:58:11;;;;;;;;;6.75;5.00;;;;;35.56;34.44;100965.63;146621;596;47010;-71
2023/07/16 13:01:22;;;;;;;;;6.00;5.33;;;;;35.58;33.47;100967.31;146616;606;47016;-71
2023/07/16 13:04:18;;;;;;;;;7.33;6.00;;;;;35.59;33.10;100965.50;146621;577;46020;-71
2023/07/16 13:07:10;;;;;;;;;7.75;7.75;;;;;35.60;33.82;100953.75;146619;711;46034;-73
2023/07/16 13:10:11;;;;;;;;;6.00;6.00;;;;;35.66;34.06;100955.28;146622;584;46010;-75
2023/07/16 13:13:18;;;;;;;;;6.25;6.25;;;;;35.78;35.29;100958.22;146618;657;47014;-75
2023/07/16 13:16:09;;;;;;;;;5.00;5.00;;;;;35.86;34.31;100947.06;146620;578;47010;-75
2023/07/16 13:19:03;;;;;;;;;4.75;4.75;;;;;35.82;34.58;100957.09;146617;634;46012;-73
2023/07/16 13:22:03;;;;;;;;;5.75;5.25;;;;;35.82;35.65;100937.34;146619;569;46020;-73
2023/07/16 13:25:00;;;;;;;;;5.00;5.00;;;;;35.87;34.55;100943.41;146617;637;48012;-74
2023/07/16 13:27:53;;;;;;;;;4.25;4.00;;;;;35.95;33.81;100952.00;146620;691;46021;-71
2023/07/16 13:30:48;;;;;;;;;4.00;4.00;;;;;36.00;35.16;100941.81;146617;589;47012;-75
2023/07/16 13:33:42;;;;;;;;;6.00;6.00;;;;;36.04;34.56;100937.16;146621;625;48010;-72
2023/07/16 13:36:44;;;;;;;;;5.00;4.67;;;;;36.00;35.37;100938.25;146617;578;46012;-75
2023/07/16 13:39:36;;;;;;;;;6.75;5.75;;;;;35.90;34.46;100942.37;146620;588;46018;-73
2023/07/16 13:42:52;;;;;;;;;5.00;5.00;;;;;35.88;33.80;100928.06;146615;716;46916;-73
2023/07/16 13:45:49;;;;;;;;;6.75;6.00;;;;;35.85;32.32;100940.75;146620;565;46010;-73
2023/07/16 13:48:50;;;;;;;;;5.00;5.00;;;;;35.73;32.50;100933.28;146615;629;46017;-74
2023/07/16 13:51:51;;;;;;;;;10.00;9.75;;;;;35.58;33.65;100926.00;146621;602;46020;-72
2023/07/16 13:54:45;;;;;;;;;5.00;4.25;;;;;35.54;35.04;100925.25;146616;574;46016;-74
2023/07/16 13:57:43;;;;;;;;;7.33;6.33;;;;;35.56;32.15;100926.06;146623;574;46020;-72